createdAt,value
2019-05-05T00:00:14.263Z,2.21
2019-05-05T00:01:11.987Z,2.10
2019-05-05T00:02:11.972Z,2.12
2019-05-05T00:03:11.964Z,2.10
2019-05-05T00:04:11.951Z,2.00
2019-05-05T00:05:11.946Z,1.95
2019-05-05T00:06:11.928Z,1.90
2019-05-05T00:07:11.917Z,1.88
2019-05-05T00:08:11.910Z,1.91
2019-05-05T00:09:11.897Z,1.91
2019-05-05T00:10:11.889Z,1.79
2019-05-05T00:11:11.880Z,1.79
2019-05-05T00:12:11.866Z,1.87
2019-05-05T00:13:11.855Z,1.80
2019-05-05T00:14:11.843Z,1.86
2019-05-05T00:15:11.834Z,1.83
2019-05-05T00:16:11.825Z,1.88
2019-05-05T00:17:11.813Z,1.72
2019-05-05T00:18:11.802Z,1.83
2019-05-05T00:19:11.789Z,1.80
2019-05-05T00:20:11.782Z,1.86
2019-05-05T00:21:11.773Z,1.93
2019-05-05T00:22:11.758Z,1.88
2019-05-05T00:23:11.747Z,2.00
2019-05-05T00:24:11.737Z,2.02
2019-05-05T00:25:11.730Z,1.99
2019-05-05T00:26:11.715Z,2.00
2019-05-05T00:27:11.707Z,2.02
2019-05-05T00:28:11.696Z,2.05
2019-05-05T00:29:11.686Z,2.02
2019-05-05T00:30:11.675Z,2.03
2019-05-05T00:31:11.666Z,2.16
2019-05-05T00:32:11.654Z,2.02
2019-05-05T00:33:11.643Z,2.00
2019-05-05T00:34:11.631Z,1.98
2019-05-05T00:35:11.621Z,1.90
2019-05-05T00:36:11.617Z,1.88
2019-05-05T00:37:11.601Z,1.79
2019-05-05T00:38:11.589Z,1.81
2019-05-05T00:39:11.578Z,1.87
2019-05-05T00:40:11.568Z,1.95
2019-05-05T00:41:11.557Z,2.03
2019-05-05T00:42:11.550Z,2.02
2019-05-05T00:43:11.536Z,2.03
2019-05-05T00:44:11.526Z,2.05
2019-05-05T00:45:11.515Z,2.07
2019-05-05T00:46:11.505Z,2.14
2019-05-05T00:47:11.492Z,2.12
2019-05-05T00:48:11.483Z,2.18
2019-05-05T00:49:11.471Z,2.36
2019-05-05T00:50:11.461Z,2.27
2019-05-05T00:51:11.451Z,2.31
2019-05-05T00:52:11.443Z,2.38
2019-05-05T00:53:11.430Z,2.48
2019-05-05T00:54:11.422Z,2.42
2019-05-05T00:55:11.409Z,2.49
2019-05-05T00:56:11.399Z,2.43
2019-05-05T00:57:11.387Z,2.56
2019-05-05T00:58:11.378Z,2.35
2019-05-05T00:59:11.366Z,2.43
2019-05-05T01:00:11.355Z,2.38
2019-05-05T01:01:11.348Z,2.41
2019-05-05T01:02:11.337Z,2.35
2019-05-05T01:03:11.323Z,2.39
2019-05-05T01:04:11.317Z,2.27
2019-05-05T01:05:11.302Z,2.20
2019-05-05T01:06:11.292Z,2.16
2019-05-05T01:07:11.281Z,2.14
2019-05-05T01:08:11.268Z,2.14
2019-05-05T01:09:11.258Z,2.10
2019-05-05T01:10:11.249Z,2.12
2019-05-05T01:11:11.238Z,2.00
2019-05-05T01:12:11.234Z,1.88
2019-05-05T01:13:11.218Z,1.88
2019-05-05T01:14:11.204Z,1.83
2019-05-05T01:15:11.196Z,1.76
2019-05-05T01:16:11.187Z,1.66
2019-05-05T01:17:11.175Z,1.66
2019-05-05T01:18:11.165Z,1.59
2019-05-05T01:19:11.154Z,1.45
2019-05-05T01:20:11.142Z,1.50
2019-05-05T01:21:11.136Z,1.44
2019-05-05T01:22:11.121Z,1.44
2019-05-05T01:23:11.115Z,1.40
2019-05-05T01:24:11.101Z,1.40
2019-05-05T01:25:11.090Z,1.44
2019-05-05T01:26:11.078Z,1.20
2019-05-05T01:27:11.068Z,1.26
2019-05-05T01:28:11.058Z,1.22
2019-05-05T01:29:11.055Z,1.27
2019-05-05T01:30:11.036Z,1.22
2019-05-05T01:31:11.025Z,1.16
2019-05-05T01:32:11.019Z,1.11
2019-05-05T01:33:11.005Z,1.18
2019-05-05T01:34:10.993Z,1.11
2019-05-05T01:35:10.998Z,1.06
2019-05-05T01:36:10.973Z,1.04
2019-05-05T01:37:10.961Z,1.02
2019-05-05T01:38:10.951Z,0.98
2019-05-05T01:39:10.946Z,0.84
2019-05-05T01:40:10.930Z,0.78
2019-05-05T01:41:10.918Z,0.84
2019-05-05T01:42:10.908Z,0.73
2019-05-05T01:43:10.898Z,0.76
2019-05-05T01:44:10.886Z,0.69
2019-05-05T01:45:10.882Z,0.68
2019-05-05T01:46:10.865Z,0.66
2019-05-05T01:47:10.854Z,0.62
2019-05-05T01:48:10.844Z,0.53
2019-05-05T01:49:10.832Z,0.58
2019-05-05T01:50:18.307Z,0.57
2019-05-05T01:51:11.819Z,0.51
2019-05-05T01:52:10.804Z,0.50
2019-05-05T01:53:10.793Z,0.46
2019-05-05T01:54:10.779Z,0.44
2019-05-05T01:55:10.771Z,0.39
2019-05-05T01:56:10.758Z,0.46
2019-05-05T01:57:10.750Z,0.42
2019-05-05T01:58:10.740Z,0.39
2019-05-05T01:59:10.727Z,0.39
2019-05-05T02:00:10.716Z,0.36
2019-05-05T02:01:10.703Z,0.38
2019-05-05T02:02:10.695Z,0.26
2019-05-05T02:03:10.683Z,0.29
2019-05-05T02:04:10.681Z,0.33
2019-05-05T02:05:10.663Z,0.29
2019-05-05T02:06:10.651Z,0.24
2019-05-05T02:07:10.640Z,0.18
2019-05-05T02:08:10.631Z,0.21
2019-05-05T02:09:10.619Z,0.11
2019-05-05T02:10:10.611Z,0.20
2019-05-05T02:11:10.598Z,0.18
2019-05-05T02:12:10.587Z,0.07
2019-05-05T02:13:10.577Z,0.11
2019-05-05T02:14:10.568Z,0.07
2019-05-05T02:15:10.556Z,0.04
2019-05-05T02:16:10.549Z,0.14
2019-05-05T02:17:10.535Z,-0.03
2019-05-05T02:18:10.523Z,0.02
2019-05-05T02:19:10.512Z,0.10
2019-05-05T02:20:10.503Z,-0.01
2019-05-05T02:21:10.492Z,0.02
2019-05-05T02:22:10.486Z,-0.03
2019-05-05T02:23:10.468Z,-0.01
2019-05-05T02:24:10.460Z,-0.03
2019-05-05T02:25:10.450Z,-0.10
2019-05-05T02:26:10.437Z,-0.07
2019-05-05T02:27:10.426Z,-0.05
2019-05-05T02:28:10.415Z,-0.14
2019-05-05T02:29:10.405Z,-0.18
2019-05-05T02:30:10.405Z,-0.28
2019-05-05T02:31:10.385Z,-0.23
2019-05-05T02:32:10.375Z,-0.29
2019-05-05T02:33:10.364Z,-0.23
2019-05-05T02:34:10.354Z,-0.31
2019-05-05T02:35:10.341Z,-0.34
2019-05-05T02:36:10.331Z,-0.29
2019-05-05T02:37:10.325Z,-0.39
2019-05-05T02:38:10.309Z,-0.33
2019-05-05T02:39:10.303Z,-0.29
2019-05-05T02:40:10.289Z,-0.39
2019-05-05T02:41:10.278Z,-0.37
2019-05-05T02:42:10.268Z,-0.34
2019-05-05T02:43:10.258Z,-0.37
2019-05-05T02:44:10.253Z,-0.33
2019-05-05T02:45:10.234Z,-0.42
2019-05-05T02:46:10.233Z,-0.43
2019-05-05T02:47:10.220Z,-0.46
2019-05-05T02:48:10.211Z,-0.40
2019-05-05T02:49:10.198Z,-0.44
2019-05-05T02:50:10.186Z,-0.54
2019-05-05T02:51:10.172Z,-0.58
2019-05-05T02:52:10.168Z,-0.60
2019-05-05T02:53:10.150Z,-0.65
2019-05-05T02:54:10.139Z,-0.70
2019-05-05T02:55:10.134Z,-0.72
2019-05-05T02:56:10.120Z,-0.67
2019-05-05T02:57:10.112Z,-0.62
2019-05-05T02:58:10.099Z,-0.69
2019-05-05T02:59:10.085Z,-0.55
2019-05-05T03:00:10.076Z,-0.57
2019-05-05T03:01:10.065Z,-0.72
2019-05-05T03:02:10.055Z,-0.58
2019-05-05T03:03:10.047Z,-0.55
2019-05-05T03:04:10.034Z,-0.57
2019-05-05T03:05:10.022Z,-0.54
2019-05-05T03:06:10.012Z,-0.65
2019-05-05T03:07:10.001Z,-0.57
2019-05-05T03:08:09.990Z,-0.60
2019-05-05T03:09:09.987Z,-0.64
2019-05-05T03:10:09.968Z,-0.55
2019-05-05T03:11:09.960Z,-0.65
2019-05-05T03:12:11.167Z,-0.60
2019-05-05T03:13:09.938Z,-0.61
2019-05-05T03:14:09.927Z,-0.60
2019-05-05T03:15:09.916Z,-0.54
2019-05-05T03:16:09.906Z,-0.44
2019-05-05T03:17:09.896Z,-0.46
2019-05-05T03:18:09.885Z,-0.51
2019-05-05T03:19:09.876Z,-0.49
2019-05-05T03:20:09.865Z,-0.47
2019-05-05T03:21:09.853Z,-0.55
2019-05-05T03:22:09.842Z,-0.60
2019-05-05T03:23:09.831Z,-0.69
2019-05-05T03:24:09.821Z,-0.69
2019-05-05T03:25:09.809Z,-0.72
2019-05-05T03:26:09.799Z,-0.67
2019-05-05T03:27:09.789Z,-0.62
2019-05-05T03:28:09.779Z,-0.62
2019-05-05T03:29:09.768Z,-0.65
2019-05-05T03:30:09.761Z,-0.65
2019-05-05T03:31:09.747Z,-0.62
2019-05-05T03:32:11.599Z,-0.70
2019-05-05T03:33:09.725Z,-0.73
2019-05-05T03:34:09.715Z,-0.65
2019-05-05T03:35:09.703Z,-0.67
2019-05-05T03:36:09.699Z,-0.72
2019-05-05T03:37:09.681Z,-0.72
2019-05-05T03:38:09.672Z,-0.73
2019-05-05T03:39:09.661Z,-0.72
2019-05-05T03:40:09.651Z,-0.67
2019-05-05T03:41:09.641Z,-0.75
2019-05-05T03:42:09.643Z,-0.72
2019-05-05T03:43:09.618Z,-0.72
2019-05-05T03:44:09.611Z,-0.76
2019-05-05T03:45:09.598Z,-0.75
2019-05-05T03:46:09.588Z,-0.69
2019-05-05T03:47:09.577Z,-0.54
2019-05-05T03:48:09.566Z,-0.65
2019-05-05T03:49:09.556Z,-0.64
2019-05-05T03:50:09.547Z,-0.65
2019-05-05T03:51:18.946Z,-0.64
2019-05-05T03:52:10.524Z,-0.70
2019-05-05T03:53:09.514Z,-0.76
2019-05-05T03:54:09.502Z,-0.70
2019-05-05T03:55:09.494Z,-0.73
2019-05-05T03:56:09.485Z,-0.79
2019-05-05T03:57:09.471Z,-0.72
2019-05-05T03:58:09.462Z,-0.72
2019-05-05T03:59:09.450Z,-0.76
2019-05-05T04:00:09.440Z,-0.75
2019-05-05T04:01:09.431Z,-0.69
2019-05-05T04:02:09.423Z,-0.65
2019-05-05T04:03:09.415Z,-0.72
2019-05-05T04:04:09.399Z,-0.62
2019-05-05T04:05:09.386Z,-0.60
2019-05-05T04:06:09.375Z,-0.55
2019-05-05T04:07:09.367Z,-0.51
2019-05-05T04:08:09.359Z,-0.46
2019-05-05T04:09:09.345Z,-0.46
2019-05-05T04:10:09.333Z,-0.44
2019-05-05T04:11:09.325Z,-0.51
2019-05-05T04:12:09.313Z,-0.46
2019-05-05T04:13:09.301Z,-0.47
2019-05-05T04:14:09.302Z,-0.42
2019-05-05T04:15:09.280Z,-0.39
2019-05-05T04:16:09.270Z,-0.43
2019-05-05T04:17:09.261Z,-0.46
2019-05-05T04:18:09.249Z,-0.42
2019-05-05T04:19:09.237Z,-0.37
2019-05-05T04:20:09.238Z,-0.33
2019-05-05T04:21:09.217Z,-0.25
2019-05-05T04:22:09.205Z,-0.28
2019-05-05T04:23:09.205Z,-0.25
2019-05-05T04:24:09.185Z,-0.31
2019-05-05T04:25:09.175Z,-0.16
2019-05-05T04:26:09.164Z,-0.14
2019-05-05T04:27:09.153Z,-0.10
2019-05-05T04:28:09.143Z,-0.15
2019-05-05T04:29:09.134Z,-0.03
2019-05-05T04:30:09.123Z,-0.04
2019-05-05T04:31:09.110Z,-0.07
2019-05-05T04:32:09.098Z,-0.05
2019-05-05T04:33:09.095Z,-0.04
2019-05-05T04:34:09.086Z,-0.01
2019-05-05T04:35:09.068Z,-0.05
2019-05-05T04:36:09.056Z,0.02
2019-05-05T04:37:09.044Z,0.18
2019-05-05T04:38:09.033Z,0.10
2019-05-05T04:39:09.023Z,0.28
2019-05-05T04:40:09.017Z,0.20
2019-05-05T04:41:09.003Z,0.29
2019-05-05T04:42:08.992Z,0.26
2019-05-05T04:43:08.988Z,0.33
2019-05-05T04:44:08.970Z,0.44
2019-05-05T04:45:08.960Z,0.36
2019-05-05T04:46:08.948Z,0.44
2019-05-05T04:47:08.941Z,0.49
2019-05-05T04:48:08.933Z,0.50
2019-05-05T04:49:08.922Z,0.53
2019-05-05T04:50:08.909Z,0.60
2019-05-05T04:51:08.896Z,0.66
2019-05-05T04:52:08.889Z,0.69
2019-05-05T04:53:08.877Z,0.73
2019-05-05T04:54:08.864Z,0.83
2019-05-05T04:55:08.859Z,0.88
2019-05-05T04:56:08.842Z,0.98
2019-05-05T04:57:08.832Z,1.05
2019-05-05T04:58:08.825Z,1.24
2019-05-05T04:59:08.813Z,1.24
2019-05-05T05:00:08.800Z,1.44
2019-05-05T05:01:08.796Z,1.42
2019-05-05T05:02:08.779Z,1.45
2019-05-05T05:03:08.771Z,1.51
2019-05-05T05:04:08.758Z,1.66
2019-05-05T05:05:08.747Z,1.70
2019-05-05T05:06:08.737Z,1.80
2019-05-05T05:07:08.736Z,1.88
2019-05-05T05:08:08.714Z,2.05
2019-05-05T05:09:08.712Z,2.17
2019-05-05T05:10:08.693Z,2.39
2019-05-05T05:11:08.689Z,2.45
2019-05-05T05:12:08.679Z,2.49
2019-05-05T05:13:08.665Z,2.64
2019-05-05T05:14:08.654Z,2.81
2019-05-05T05:15:08.641Z,2.92
2019-05-05T05:16:08.634Z,3.11
2019-05-05T05:17:08.619Z,3.18
2019-05-05T05:18:08.618Z,3.36
2019-05-05T05:19:08.598Z,3.51
2019-05-05T05:20:08.588Z,3.62
2019-05-05T05:21:08.578Z,3.73
2019-05-05T05:22:08.568Z,3.79
2019-05-05T05:23:08.555Z,4.04
2019-05-05T05:24:08.545Z,4.06
2019-05-05T05:25:08.536Z,4.16
2019-05-05T05:26:08.525Z,4.30
2019-05-05T05:27:08.515Z,4.37
2019-05-05T05:28:08.503Z,4.48
2019-05-05T05:29:08.492Z,4.72
2019-05-05T05:30:08.483Z,4.89
2019-05-05T05:31:08.470Z,5.00
2019-05-05T05:32:08.460Z,5.09
2019-05-05T05:33:08.451Z,5.33
2019-05-05T05:34:08.442Z,5.71
2019-05-05T05:35:08.429Z,6.03
2019-05-05T05:36:08.419Z,6.41
2019-05-05T05:37:08.407Z,6.80
2019-05-05T05:38:08.401Z,6.98
2019-05-05T05:39:08.393Z,6.73
2019-05-05T05:40:08.377Z,6.64
2019-05-05T05:41:08.364Z,6.58
2019-05-05T05:42:08.360Z,6.66
2019-05-05T05:43:08.344Z,6.73
2019-05-05T05:44:08.335Z,6.62
2019-05-05T05:45:08.321Z,6.89
2019-05-05T05:46:08.315Z,7.25
2019-05-05T05:47:08.300Z,7.60
2019-05-05T05:48:08.293Z,7.89
2019-05-05T05:49:08.290Z,8.05
2019-05-05T05:50:08.272Z,8.44
2019-05-05T05:51:08.265Z,8.73
2019-05-05T05:52:15.977Z,9.08
2019-05-05T05:53:09.246Z,9.39
2019-05-05T05:54:08.234Z,9.21
2019-05-05T05:55:08.223Z,9.10
2019-05-05T05:56:08.208Z,8.80
2019-05-05T05:57:08.202Z,8.73
2019-05-05T05:58:08.187Z,8.61
2019-05-05T05:59:08.176Z,8.65
2019-05-05T06:00:08.170Z,8.66
2019-05-05T06:01:08.155Z,8.99
2019-05-05T06:02:11.816Z,9.21
2019-05-05T06:03:09.133Z,9.54
2019-05-05T06:04:08.168Z,9.90
2019-05-05T06:05:08.116Z,9.94
2019-05-05T06:06:08.100Z,10.09
2019-05-05T06:07:08.095Z,10.05
2019-05-05T06:08:08.079Z,9.87
2019-05-05T06:09:08.069Z,9.75
2019-05-05T06:10:21.102Z,10.04
2019-05-05T06:11:09.046Z,10.42
2019-05-05T06:12:08.039Z,10.73
2019-05-05T06:13:08.030Z,11.06
2019-05-05T06:14:08.024Z,11.29
2019-05-05T06:15:08.008Z,11.44
2019-05-05T06:16:07.996Z,11.52
2019-05-05T06:17:07.987Z,11.65
2019-05-05T06:18:07.972Z,11.72
2019-05-05T06:19:10.218Z,11.79
2019-05-05T06:20:07.958Z,11.82
2019-05-05T06:21:07.939Z,11.54
2019-05-05T06:22:07.931Z,11.29
2019-05-05T06:23:07.921Z,11.07
2019-05-05T06:24:07.907Z,10.99
2019-05-05T06:25:07.897Z,11.09
2019-05-05T06:26:07.886Z,11.15
2019-05-05T06:27:07.874Z,11.15
2019-05-05T06:28:07.866Z,11.24
2019-05-05T06:29:07.854Z,11.15
2019-05-05T06:30:07.844Z,11.15
2019-05-05T06:31:07.832Z,11.06
2019-05-05T06:32:07.821Z,11.18
2019-05-05T06:33:07.811Z,11.58
2019-05-05T06:34:07.799Z,11.85
2019-05-05T06:35:07.798Z,12.07
2019-05-05T06:36:07.777Z,12.23
2019-05-05T06:37:07.766Z,11.91
2019-05-05T06:38:07.755Z,11.91
2019-05-05T06:39:07.744Z,11.65
2019-05-05T06:40:07.736Z,11.64
2019-05-05T06:41:07.723Z,11.64
2019-05-05T06:42:07.719Z,11.52
2019-05-05T06:43:07.701Z,11.49
2019-05-05T06:44:07.693Z,11.55
2019-05-05T06:45:07.682Z,11.69
2019-05-05T06:46:07.672Z,11.54
2019-05-05T06:47:07.657Z,11.52
2019-05-05T06:48:07.649Z,11.62
2019-05-05T06:49:07.637Z,11.78
2019-05-05T06:50:07.627Z,11.95
2019-05-05T06:51:07.622Z,11.80
2019-05-05T06:52:07.605Z,11.90
2019-05-05T06:53:07.593Z,12.02
2019-05-05T06:54:07.583Z,12.01
2019-05-05T06:55:07.572Z,11.86
2019-05-05T06:56:07.563Z,11.91
2019-05-05T06:57:07.551Z,11.90
2019-05-05T06:58:07.543Z,12.14
2019-05-05T06:59:07.529Z,12.17
2019-05-05T07:00:07.518Z,12.17
2019-05-05T07:01:07.509Z,12.05
2019-05-05T07:02:07.495Z,11.98
2019-05-05T07:03:07.948Z,11.94
2019-05-05T07:04:07.476Z,11.82
2019-05-05T07:05:07.465Z,11.86
2019-05-05T07:06:07.455Z,12.09
2019-05-05T07:07:07.445Z,12.45
2019-05-05T07:08:07.432Z,12.46
2019-05-05T07:09:07.426Z,12.49
2019-05-05T07:10:07.411Z,12.17
2019-05-05T07:11:07.443Z,12.14
2019-05-05T07:12:07.391Z,12.19
2019-05-05T07:13:07.378Z,12.42
2019-05-05T07:14:07.368Z,12.64
2019-05-05T07:15:07.360Z,12.72
2019-05-05T07:16:07.353Z,12.52
2019-05-05T07:17:07.338Z,11.91
2019-05-05T07:18:07.328Z,11.82
2019-05-05T07:19:07.314Z,11.91
2019-05-05T07:20:07.304Z,12.13
2019-05-05T07:21:07.293Z,12.37
2019-05-05T07:22:07.283Z,12.31
2019-05-05T07:23:07.272Z,12.56
2019-05-05T07:24:07.261Z,12.64
2019-05-05T07:25:07.249Z,12.67
2019-05-05T07:26:07.241Z,12.56
2019-05-05T07:27:07.230Z,12.57
2019-05-05T07:28:07.220Z,12.85
2019-05-05T07:29:07.207Z,12.95
2019-05-05T07:30:07.210Z,13.07
2019-05-05T07:31:07.208Z,13.15
2019-05-05T07:32:07.170Z,13.12
2019-05-05T07:33:07.158Z,12.92
2019-05-05T07:34:07.151Z,12.79
2019-05-05T07:35:07.142Z,12.57
2019-05-05T07:36:07.125Z,12.53
2019-05-05T07:37:07.115Z,12.37
2019-05-05T07:38:07.103Z,12.45
2019-05-05T07:39:07.097Z,12.45
2019-05-05T07:40:07.084Z,12.31
2019-05-05T07:41:07.070Z,12.34
2019-05-05T07:42:07.060Z,12.27
2019-05-05T07:43:07.052Z,12.37
2019-05-05T07:44:07.039Z,11.83
2019-05-05T07:45:19.374Z,11.80
2019-05-05T07:46:08.015Z,12.01
2019-05-05T07:47:07.007Z,12.28
2019-05-05T07:48:06.994Z,12.57
2019-05-05T07:49:06.983Z,12.89
2019-05-05T07:50:06.973Z,13.11
2019-05-05T07:51:06.962Z,13.12
2019-05-05T07:52:07.006Z,13.45
2019-05-05T07:53:14.515Z,13.49
2019-05-05T07:54:07.929Z,13.41
2019-05-05T07:55:06.919Z,13.51
2019-05-05T07:56:07.745Z,13.51
2019-05-05T07:57:06.899Z,13.73
2019-05-05T07:58:06.888Z,13.92
2019-05-05T07:59:06.879Z,14.17
2019-05-05T08:00:06.867Z,14.20
2019-05-05T08:01:06.856Z,13.96
2019-05-05T08:02:06.848Z,13.54
2019-05-05T08:03:06.836Z,13.19
2019-05-05T08:04:06.824Z,13.04
2019-05-05T08:05:06.815Z,12.86
2019-05-05T08:06:06.805Z,13.04
2019-05-05T08:07:06.793Z,13.11
2019-05-05T08:08:06.784Z,13.38
2019-05-05T08:09:06.772Z,13.48
2019-05-05T08:10:06.764Z,14.00
2019-05-05T08:11:06.753Z,14.12
2019-05-05T08:12:06.740Z,14.00
2019-05-05T08:13:06.731Z,14.15
2019-05-05T08:14:06.720Z,14.42
2019-05-05T08:15:06.710Z,14.25
2019-05-05T08:16:06.699Z,14.37
2019-05-05T08:17:06.689Z,14.35
2019-05-05T08:18:06.679Z,14.61
2019-05-05T08:19:06.667Z,15.09
2019-05-05T08:20:06.659Z,15.25
2019-05-05T08:21:06.659Z,15.34
2019-05-05T08:22:06.638Z,15.46
2019-05-05T08:23:08.305Z,15.28
2019-05-05T08:24:06.618Z,14.91
2019-05-05T08:25:06.608Z,14.77
2019-05-05T08:26:06.598Z,15.16
2019-05-05T08:27:06.618Z,15.47
2019-05-05T08:28:06.580Z,15.62
2019-05-05T08:29:06.566Z,15.83
2019-05-05T08:30:06.557Z,16.25
2019-05-05T08:31:06.546Z,16.64
2019-05-05T08:32:06.537Z,16.83
2019-05-05T08:33:06.525Z,16.25
2019-05-05T08:34:06.522Z,15.96
2019-05-05T08:35:06.513Z,15.59
2019-05-05T08:36:06.494Z,14.50
2019-05-05T08:37:06.485Z,14.04
2019-05-05T08:38:06.477Z,13.64
2019-05-05T08:39:06.465Z,14.43
2019-05-05T08:40:06.458Z,15.02
2019-05-05T08:41:06.444Z,15.74
2019-05-05T08:42:06.433Z,16.43
2019-05-05T08:43:06.423Z,16.33
2019-05-05T08:44:06.412Z,16.24
2019-05-05T08:45:06.405Z,16.75
2019-05-05T08:46:06.397Z,17.26
2019-05-05T08:47:06.382Z,17.48
2019-05-05T08:48:06.375Z,17.54
2019-05-05T08:49:06.361Z,17.25
2019-05-05T08:50:06.352Z,16.85
2019-05-05T08:51:06.342Z,16.97
2019-05-05T08:52:06.337Z,16.93
2019-05-05T08:53:08.485Z,17.03
2019-05-05T08:54:06.312Z,17.38
2019-05-05T08:55:06.303Z,17.59
2019-05-05T08:56:06.293Z,17.15
2019-05-05T08:57:06.282Z,17.33
2019-05-05T08:58:06.275Z,17.75
2019-05-05T08:59:06.265Z,17.59
2019-05-05T09:00:06.252Z,17.23
2019-05-05T09:01:06.245Z,16.76
2019-05-05T09:02:06.235Z,16.85
2019-05-05T09:03:06.225Z,16.61
2019-05-05T09:04:06.215Z,16.58
2019-05-05T09:05:06.204Z,17.23
2019-05-05T09:06:06.193Z,17.48
2019-05-05T09:07:06.188Z,18.10
2019-05-05T09:08:06.174Z,18.10
2019-05-05T09:09:06.164Z,18.32
2019-05-05T09:10:06.154Z,18.29
2019-05-05T09:11:06.149Z,17.84
2019-05-05T09:12:06.135Z,18.08
2019-05-05T09:13:06.125Z,18.54
2019-05-05T09:14:06.115Z,18.90
2019-05-05T09:15:06.106Z,18.94
2019-05-05T09:16:06.099Z,18.58
2019-05-05T09:17:06.086Z,18.58
2019-05-05T09:18:06.078Z,18.78
2019-05-05T09:19:06.066Z,17.95
2019-05-05T09:20:06.056Z,16.79
2019-05-05T09:21:06.046Z,16.14
2019-05-05T09:22:08.700Z,14.84
2019-05-05T09:23:06.028Z,15.27
2019-05-05T09:24:06.016Z,16.12
2019-05-05T09:25:06.007Z,15.41
2019-05-05T09:26:05.994Z,14.94
2019-05-05T09:27:05.985Z,14.39
2019-05-05T09:28:06.283Z,13.99
2019-05-05T09:29:05.962Z,13.49
2019-05-05T09:30:05.953Z,14.69
2019-05-05T09:31:05.944Z,15.69
2019-05-05T09:32:05.933Z,16.04
2019-05-05T09:33:05.922Z,15.13
2019-05-05T09:34:05.919Z,15.47
2019-05-05T09:35:05.905Z,14.77
2019-05-05T09:36:05.893Z,14.40
2019-05-05T09:37:05.887Z,13.73
2019-05-05T09:38:05.874Z,15.09
2019-05-05T09:39:05.861Z,15.06
2019-05-05T09:40:05.849Z,14.55
2019-05-05T09:41:05.840Z,15.86
2019-05-05T09:42:05.826Z,17.08
2019-05-05T09:43:05.818Z,17.74
2019-05-05T09:44:05.805Z,18.20
2019-05-05T09:45:05.798Z,18.47
2019-05-05T09:46:05.787Z,18.76
2019-05-05T09:47:05.778Z,19.04
2019-05-05T09:48:05.766Z,19.37
2019-05-05T09:49:05.756Z,19.10
2019-05-05T09:50:05.751Z,19.40
2019-05-05T09:51:05.738Z,19.36
2019-05-05T09:52:05.730Z,18.62
2019-05-05T09:53:05.716Z,17.71
2019-05-05T09:54:13.926Z,16.97
2019-05-05T09:55:06.693Z,17.86
2019-05-05T09:56:05.685Z,18.52
2019-05-05T09:57:05.677Z,18.88
2019-05-05T09:58:05.664Z,18.60
2019-05-05T09:59:05.654Z,19.21
2019-05-05T10:00:05.646Z,19.26
2019-05-05T10:01:05.639Z,17.54
2019-05-05T10:02:05.625Z,15.62
2019-05-05T10:03:05.613Z,14.09
2019-05-05T10:04:05.604Z,14.80
2019-05-05T10:05:05.594Z,16.23
2019-05-05T10:06:05.590Z,17.14
2019-05-05T10:07:05.595Z,17.07
2019-05-05T10:08:05.565Z,17.62
2019-05-05T10:09:05.553Z,18.27
2019-05-05T10:10:05.543Z,18.37
2019-05-05T10:11:05.535Z,18.21
2019-05-05T10:12:05.523Z,17.59
2019-05-05T10:13:05.513Z,16.30
2019-05-05T10:14:05.507Z,15.39
2019-05-05T10:15:07.464Z,14.75
2019-05-05T10:16:05.483Z,14.42
2019-05-05T10:17:05.478Z,14.27
2019-05-05T10:18:05.463Z,14.12
2019-05-05T10:19:05.452Z,13.96
2019-05-05T10:20:05.441Z,13.46
2019-05-05T10:21:05.431Z,13.49
2019-05-05T10:22:05.418Z,13.38
2019-05-05T10:23:05.409Z,13.87
2019-05-05T10:24:05.397Z,14.61
2019-05-05T10:25:05.387Z,15.72
2019-05-05T10:26:05.384Z,16.91
2019-05-05T10:27:05.372Z,18.11
2019-05-05T10:28:05.356Z,17.68
2019-05-05T10:29:05.349Z,17.18
2019-05-05T10:30:05.334Z,16.60
2019-05-05T10:31:05.324Z,15.76
2019-05-05T10:32:05.317Z,15.03
2019-05-05T10:33:05.319Z,14.69
2019-05-05T10:34:05.294Z,14.54
2019-05-05T10:35:05.282Z,14.15
2019-05-05T10:36:05.270Z,13.84
2019-05-05T10:37:05.261Z,13.69
2019-05-05T10:38:05.252Z,13.63
2019-05-05T10:39:05.243Z,13.33
2019-05-05T10:40:05.238Z,13.05
2019-05-05T10:41:05.223Z,13.10
2019-05-05T10:42:05.209Z,13.15
2019-05-05T10:43:05.194Z,13.23
2019-05-05T10:44:05.187Z,13.04
2019-05-05T10:45:05.174Z,12.86
2019-05-05T10:46:05.162Z,13.14
2019-05-05T10:47:05.157Z,13.59
2019-05-05T10:48:05.143Z,13.25
2019-05-05T10:49:05.131Z,12.96
2019-05-05T10:50:05.122Z,12.71
2019-05-05T10:51:05.109Z,12.62
2019-05-05T10:52:05.097Z,12.74
2019-05-05T10:53:05.087Z,13.10
2019-05-05T10:54:05.076Z,13.14
2019-05-05T10:55:05.064Z,14.37
2019-05-05T10:56:05.057Z,14.77
2019-05-05T10:57:05.043Z,15.94
2019-05-05T10:58:05.032Z,16.28
2019-05-05T10:59:05.023Z,16.11
2019-05-05T11:00:12.206Z,16.08
2019-05-05T11:01:06.010Z,15.64
2019-05-05T11:02:05.233Z,15.47
2019-05-05T11:03:04.982Z,15.60
2019-05-05T11:04:04.974Z,15.87
2019-05-05T11:05:04.963Z,15.71
2019-05-05T11:06:04.948Z,16.05
2019-05-05T11:07:04.939Z,16.63
2019-05-05T11:08:04.928Z,16.25
2019-05-05T11:09:04.923Z,16.01
2019-05-05T11:10:04.907Z,15.41
2019-05-05T11:11:04.896Z,15.11
2019-05-05T11:12:04.886Z,14.81
2019-05-05T11:13:04.882Z,14.51
2019-05-05T11:14:04.867Z,14.14
2019-05-05T11:15:04.853Z,13.60
2019-05-05T11:16:04.842Z,13.51
2019-05-05T11:17:04.834Z,13.52
2019-05-05T11:18:04.821Z,13.26
2019-05-05T11:19:04.812Z,13.11
2019-05-05T11:20:04.800Z,13.05
2019-05-05T11:21:04.790Z,13.01
2019-05-05T11:22:04.779Z,13.30
2019-05-05T11:23:04.977Z,13.17
2019-05-05T11:24:04.757Z,13.04
2019-05-05T11:25:05.154Z,12.78
2019-05-05T11:26:04.734Z,12.95
2019-05-05T11:27:04.723Z,12.77
2019-05-05T11:28:04.714Z,12.87
2019-05-05T11:29:04.742Z,12.86
2019-05-05T11:30:04.691Z,12.90
2019-05-05T11:31:04.681Z,12.92
2019-05-05T11:32:04.672Z,12.82
2019-05-05T11:33:04.665Z,12.77
2019-05-05T11:34:04.650Z,12.74
2019-05-05T11:35:04.800Z,13.14
2019-05-05T11:36:04.639Z,14.24
2019-05-05T11:37:04.620Z,13.92
2019-05-05T11:38:04.608Z,13.64
2019-05-05T11:39:04.593Z,13.81
2019-05-05T11:40:04.583Z,13.87
2019-05-05T11:41:04.996Z,13.91
2019-05-05T11:42:04.584Z,13.99
2019-05-05T11:43:04.551Z,14.89
2019-05-05T11:44:04.539Z,15.67
2019-05-05T11:45:04.529Z,16.20
2019-05-05T11:46:04.519Z,16.23
2019-05-05T11:47:04.507Z,16.50
2019-05-05T11:48:04.497Z,16.98
2019-05-05T11:49:04.991Z,17.22
2019-05-05T11:50:04.480Z,17.78
2019-05-05T11:51:04.694Z,18.33
2019-05-05T11:52:04.709Z,19.08
2019-05-05T11:53:04.444Z,19.31
2019-05-05T11:54:04.791Z,19.33
2019-05-05T11:55:11.920Z,19.91
2019-05-05T11:56:05.412Z,19.56
2019-05-05T11:57:04.578Z,19.14
2019-05-05T11:58:04.390Z,17.99
2019-05-05T11:59:04.390Z,17.07
2019-05-05T12:00:04.371Z,16.63
2019-05-05T12:01:04.367Z,16.43
2019-05-05T12:02:04.350Z,16.15
2019-05-05T12:03:04.339Z,15.78
2019-05-05T12:04:04.330Z,15.31
2019-05-05T12:05:04.635Z,14.84
2019-05-05T12:06:04.308Z,14.22
2019-05-05T12:07:04.298Z,13.99
2019-05-05T12:08:04.286Z,13.95
2019-05-05T12:09:04.276Z,13.95
2019-05-05T12:10:04.264Z,13.89
2019-05-05T12:11:04.687Z,13.95
2019-05-05T12:12:04.244Z,13.95
2019-05-05T12:13:04.234Z,13.91
2019-05-05T12:14:04.230Z,13.85
2019-05-05T12:15:04.407Z,13.79
2019-05-05T12:16:04.683Z,13.96
2019-05-05T12:17:04.653Z,14.12
2019-05-05T12:18:04.179Z,14.10
2019-05-05T12:19:04.165Z,13.88
2019-05-05T12:20:04.720Z,13.66
2019-05-05T12:21:05.059Z,13.33
2019-05-05T12:22:04.133Z,13.44
2019-05-05T12:23:04.727Z,13.48
2019-05-05T12:24:04.114Z,13.67
2019-05-05T12:25:04.245Z,14.06
2019-05-05T12:26:04.709Z,14.35
2019-05-05T12:27:04.080Z,14.54
2019-05-05T12:28:04.539Z,14.45
2019-05-05T12:29:04.060Z,14.39
2019-05-05T12:30:04.057Z,14.14
2019-05-05T12:31:04.039Z,14.28
2019-05-05T12:32:04.028Z,14.10
2019-05-05T12:33:04.766Z,13.79
2019-05-05T12:34:04.091Z,13.91
2019-05-05T12:35:04.286Z,13.69
2019-05-05T12:36:04.505Z,14.45
2019-05-05T12:37:05.337Z,15.35
2019-05-05T12:38:03.965Z,16.43
2019-05-05T12:39:03.953Z,17.33
2019-05-05T12:40:04.101Z,18.12
2019-05-05T12:41:04.409Z,18.41
2019-05-05T12:42:04.861Z,18.20
2019-05-05T12:43:03.910Z,17.79
2019-05-05T12:44:03.920Z,17.97
2019-05-05T12:45:04.564Z,17.14
2019-05-05T12:46:04.543Z,16.28
2019-05-05T12:47:03.946Z,15.76
2019-05-05T12:48:03.863Z,15.27
2019-05-05T12:49:04.772Z,15.06
2019-05-05T12:50:03.836Z,14.70
2019-05-05T12:51:04.259Z,14.28
2019-05-05T12:52:04.620Z,14.20
2019-05-05T12:53:04.133Z,13.92
2019-05-05T12:54:04.543Z,13.75
2019-05-05T12:55:05.053Z,13.67
2019-05-05T12:56:04.142Z,13.67
2019-05-05T12:57:04.378Z,13.62
2019-05-05T12:58:03.748Z,13.69
2019-05-05T12:59:03.829Z,13.64
2019-05-05T13:00:04.273Z,13.70